Tiempo atmosférico en la estación meteorológica de Areso, Navarra (520 m.)

Fecha
DESCASC
Temp. máxima en grados centígrados (hora)
DESCASC
Temp. mínima en grados centígrados (hora)
DESCASC
Temp. media en grados centígrados
DESCASC
Racha de viento máxima en m/sg (hora)
DESCASC
Velocidad máxima media en intervalos de 10 minutos(hora)
DESCASC
Precipitaciones diarias en mm
DESCASC
Precipitaciones de 00:00 a 06:00 en mm
DESCASC
Precipitaciones de 06:00 a 12:00 en mm
DESCASC
Precipitaciones de 12:00 a 18:00 en mm
DESCASC
Precipitaciones de 18:00 a 24:00 en mm
DESCASC
10-12-2017 14.8 (18:40) 7.9 (00:00) 11.4 18.33 (20:00) 8.61 (22:30) 0.8 0.2 0.2 0 0.4
09-12-2017 7.9 (23:59) 3.5 (08:10) 5.7 4.72 (18:30) 2.22 (18:50) 17 4.8 1.8 0.4 10
08-12-2017 7.7 (13:40) 5.1 (08:20) 6.4 5.28 (23:30) 1.67 (02:10) 17.8 2.6 6.8 4.8 3.6
07-12-2017 10.1 (13:20) 3.7 (00:00) 6.9 7.78 (13:50) 4.72 (13:50) 0.2 0 0 0 0.2
06-12-2017 10.7 (15:00) -0.5 (-00:0) 5.1 7.5 (11:40) 4.44 (11:40) 0 0 0 0 0
05-12-2017 9.1 (15:50) -0.9 (-00:0) 4.1 2.22 (12:20) 0.83 (12:40) 0 0 0 0 0
04-12-2017 5.7 (14:30) 0.7 (00:00) 3.2 1.11 (11:20) 0.56 (15:20) 2.6 2.4 0.2 0 0
03-12-2017 4.8 (13:40) -5 (-00:0) -0.1 1.39 (14:40) 0.56 (14:30) 0.6 0 0 0 0.6
02-12-2017 1.1 (15:00) -2.3 (-00:0) -0.6 3.06 (19:40) 0.56 (19:20) 7.8 4.6 2.8 0.4 0
01-12-2017 3 (04:00) -1.3 (-00:0) 0.9 6.39 (02:00) 3.06 (04:50) 41.4 21.4 13.4 1.8 4.8
30-11-2017 4.1 (13:50) 0.1 (00:00) 2.1 5.83 (20:40) 3.06 (20:50) 27.4 1.8 1.4 11.4 12.8
29-11-2017 5.9 (00:00) 0.4 (00:00) 3.2 4.72 (08:30) 1.67 (12:50) 20.6 4 7 6.6 3
28-11-2017 11.2 (14:00) -0.6 (-00:0) 5.3 6.11 (13:50) 2.78 (14:50) 2.4 0 0 0 2.4
27-11-2017 10.9 (13:50) -0.5 (-00:0) 5.2 3.61 (20:40) 1.11 (20:40) 0 0 0 0 0
26-11-2017 8.9 (14:20) 1.8 (00:00) 5.3 3.89 (14:50) 1.67 (14:50) 6.8 3.4 3.2 0.2 0
25-11-2017 13.1 (00:00) 3.1 (00:00) 8.1 7.78 (06:10) 2.22 (06:10) 23 15 5.6 1.2 1.2
24-11-2017 15.4 (15:40) 11.5 (00:00) 13.4 12.22 (02:50) 7.78 (03:00) 1 0.2 0.8 0 0
23-11-2017 17.5 (13:40) 11 (00:00) 14.3 13.89 (00:10) 7.78 (04:10) 0.4 0 0.4 0 0
22-11-2017 16.3 (14:10) 10.5 (00:00) 13.4 17.5 (21:20) 10.83 (21:20) 0 0 0 0 0
21-11-2017 -- (--) -- (--) -- -- (--) -- (--) -- 0 0 -- 0
20-11-2017 19.5 (15:00) 1.3 (00:00) 10.4 1.39 (13:30) 0.83 (13:50) 0 0 0 0 0
19-11-2017 13.4 (15:00) 0.4 (00:00) 6.9 3.61 (13:40) 1.39 (13:40) 0 0 0 0 0
18-11-2017 12.2 (15:00) 3.7 (00:00) 7.9 5 (13:40) 1.39 (12:50) 0 0 0 0 0
17-11-2017 14.5 (13:30) 2.7 (00:00) 8.6 4.17 (16:30) 1.94 (15:30) 0 0 0 0 0
16-11-2017 16.6 (14:40) 1.4 (00:00) 9 3.06 (13:00) 1.67 (12:50) 0 0 0 0 0
15-11-2017 12.5 (16:00) -1.4 (-00:0) 5.6 3.33 (13:10) 1.11 (13:10) 0 0 0 0 0

Gráficas

Temp. máximas Temp. mínimas Temp. medias Precipitaciones Rachas de viento máximas Velocidades máximas media en intervalos de 10 minutos

Datos horarios

Fecha y hora oficial Temperatura (ºC) Velocidad del viento (km/h) Dirección del viento Racha (km/h) Dirección de racha Precipitación (mm) Presión (hPa) Tendencia (hPa) Humedad (%)
2017-12-14 23:00:00 8.6 11 Norte 32 Oeste 0.2 -- -- 85
2017-12-14 22:00:00 8.8 10 Noroeste 26 Noroeste 1.6 -- -- 92
2017-12-14 21:00:00 9.3 3 Noroeste 21 Norte 0.6 -- -- 96
2017-12-14 20:00:00 9.8 3 Oeste 12 Norte 0 -- -- 94
2017-12-14 19:00:00 10 0 Calma 4 Norte 0 -- -- 93
2017-12-14 18:00:00 10.4 0 Calma 4 Norte 0 -- -- 90
2017-12-14 17:00:00 10.9 0 Calma 8 Norte 0 -- -- 87
2017-12-14 16:00:00 11.3 4 Norte 13 Noroeste 0 -- -- 84
2017-12-14 15:00:00 12.3 3 Oeste 17 Sudoeste 0 -- -- 75
2017-12-14 14:00:00 12.9 7 Sudoeste 18 Sudoeste 0 -- -- 72
2017-12-14 13:00:00 13.6 10 Sudoeste 21 Sudoeste 0 -- -- 67
2017-12-14 12:00:00 12.1 6 Sur 22 Sudoeste 0 -- -- 79
2017-12-14 11:00:00 9.8 10 Sudoeste 19 Sudoeste 0 -- -- 88
2017-12-14 10:00:00 9.2 2 Sudoeste 26 Sudoeste 0.8 -- -- 94
2017-12-14 09:00:00 8.5 6 Oeste 19 Norte 1.4 -- -- 99
2017-12-14 08:00:00 8.3 2 Noroeste 11 Norte 3 -- -- 100
2017-12-14 07:00:00 8.3 3 Norte 15 Norte 2.6 -- -- 98
2017-12-14 06:00:00 8.6 2 Norte 30 Noroeste 1.6 -- -- 96
2017-12-14 05:00:00 8.6 2 Norte 6 Norte 2.4 -- -- 100
2017-12-14 04:00:00 8.7 0 Calma 9 Noroeste 2.2 -- -- 98
2017-12-14 03:00:00 9.2 2 Sudoeste 14 Oeste 0 -- -- 92
2017-12-14 02:00:00 9.8 4 Oeste 12 Oeste 0 -- -- 86
2017-12-14 01:00:00 9.4 2 Sudoeste 8 Noroeste 0 -- -- 90
2017-12-14 00:00:00 10.3 3 Oeste 19 Noroeste 0 -- -- 83
2017-12-13 23:00:00 -- 6 Oeste 25 Noroeste 0 -- -- --
2017-12-13 22:00:00 9.1 3 Noroeste 12 Sudoeste 0 -- -- 83
2017-12-13 21:00:00 8.3 0 Calma 9 Noroeste 0 -- -- 83
2017-12-13 20:00:00 8.4 3 Oeste 17 Sudoeste 0 -- -- 80
2017-12-13 19:00:00 8.4 9 Oeste 18 Sudoeste 0 -- -- 76
2017-12-13 18:00:00 8.6 9 Oeste 20 Sudoeste 0 -- -- 74
2017-12-13 17:00:00 8.8 11 Sudoeste 22 Sudoeste 0 -- -- 73
2017-12-13 16:00:00 8.5 9 Sudoeste 24 Sudoeste 0 -- -- 72
2017-12-13 15:00:00 8 13 Sur 24 Sur 0 -- -- 73
2017-12-13 14:00:00 7.9 10 Sudoeste 23 Sur 0 -- -- 74
2017-12-13 13:00:00 7.3 11 Sudoeste 24 Sur 0 -- -- 76
2017-12-13 12:00:00 6.4 11 Sudoeste 21 Sur 0 -- -- 77
2017-12-13 11:00:00 5.7 13 Oeste 24 Sudoeste 0 -- -- 78
2017-12-13 10:00:00 5.2 6 Sudoeste 18 Oeste 0 -- -- 84
2017-12-13 09:00:00 4.4 8 Sudoeste 17 Oeste 0 -- -- 88
2017-12-13 08:00:00 4.7 10 Oeste 16 Oeste 0 -- -- 82
2017-12-13 07:00:00 4.9 8 Oeste 15 Oeste 0 -- -- 77
2017-12-13 06:00:00 3.7 9 Oeste 15 Sudoeste 0 -- -- 82
2017-12-13 05:00:00 2 0 Calma 5 Sudoeste 0 -- -- 91
2017-12-13 04:00:00 3.4 0 Calma 15 Sudoeste 0 -- -- 84
2017-12-13 03:00:00 4.1 6 Sudoeste 12 Oeste 0 -- -- 80
2017-12-13 02:00:00 2.4 0 Calma 4 Sudoeste 0 -- -- 96
2017-12-13 01:00:00 2.5 0 Calma 2 Oeste 0 -- -- 96
2017-12-13 00:00:00 3 0 Calma 3 Oeste 0 -- -- 99
2017-12-12 23:00:00 3.1 0 Calma 4 Oeste 0 -- -- 98
2017-12-12 22:00:00 3.1 0 Calma 2 Sudoeste 0 -- -- 98
2017-12-12 21:00:00 3.4 0 Calma 2 Oeste 0 -- -- 97
2017-12-12 20:00:00 3.8 0 Calma 14 Sudoeste 0 -- -- 94
2017-12-12 19:00:00 4.6 4 Oeste 13 Oeste 0 -- -- 87
2017-12-12 18:00:00 4.7 4 Oeste 13 Noroeste 0 -- -- 81
2017-12-12 17:00:00 -- 8 Oeste 14 Oeste 0 -- -- --
2017-12-12 16:00:00 6.3 3 Noroeste 15 Oeste 0 -- -- 76
2017-12-12 15:00:00 6.2 8 Oeste 20 Noroeste 0 -- -- 75
2017-12-12 14:00:00 6.4 7 Oeste 21 Oeste 0 -- -- 75
2017-12-12 13:00:00 6.4 7 Sudoeste 14 Sudoeste 0 -- -- 76
2017-12-12 12:00:00 5.5 6 Sudoeste 17 Sur 0 -- -- 85
2017-12-12 11:00:00 3.4 0 Calma 3 Sur 0 -- -- 100
2017-12-12 10:00:00 1.4 0 Calma 2 Sudeste 0 -- -- 100
2017-12-12 09:00:00 0.8 0 Calma 5 Sur 0 -- -- 100
2017-12-12 08:00:00 0.7 0 Calma 4 Sur 0 -- -- 100
2017-12-12 07:00:00 0.6 0 Calma 3 Sudeste 0 -- -- 100
2017-12-12 06:00:00 0.6 0 Calma 4 Sudoeste 1.4 -- -- 100
2017-12-12 05:00:00 1.1 0 Calma 11 Sur 0.8 -- -- 99
2017-12-12 04:00:00 1 4 Este 9 Sur 0.4 -- -- 99
2017-12-12 03:00:00 0.9 2 Sudoeste 22 Sur 2.4 -- -- 98
2017-12-12 02:00:00 1.5 5 Oeste 23 Sur 2.4 -- -- 95
2017-12-12 01:00:00 2.3 8 Sudoeste 28 Sudoeste 1.2 -- -- 93
2017-12-12 00:00:00 2.6 5 Sudoeste 29 Oeste 1 -- -- 94
2017-12-11 23:00:00 3.1 12 Oeste 24 Noroeste 0.8 -- -- 92
2017-12-11 22:00:00 3.4 5 Sudoeste 33 Noroeste 0.4 -- -- 89
2017-12-11 21:00:00 3.7 3 Sur 17 Sudoeste 0.2 -- -- 93
2017-12-11 20:00:00 3.8 5 Sudoeste 25 Sudoeste 0.8 -- -- 90
2017-12-11 19:00:00 4.7 8 Noroeste 27 Noroeste 0.2 -- -- 85
2017-12-11 18:00:00 5.5 4 Noroeste 26 Noroeste 0 -- -- 82
2017-12-11 17:00:00 5.6 10 Noroeste 29 Noroeste 0 -- -- 84
2017-12-11 16:00:00 6.6 5 Noroeste 18 Oeste 0.6 -- -- 83
2017-12-11 15:00:00 7.1 9 Noroeste 34 Noroeste 0.2 -- -- 78
2017-12-11 14:00:00 8.6 13 Sudoeste 26 Oeste 0 -- -- 62
2017-12-11 13:00:00 8.7 8 Oeste 22 Oeste 0 -- -- 64
2017-12-11 12:00:00 8.3 12 Sudoeste 24 Sudoeste 0 -- -- 65
2017-12-11 11:00:00 6.6 2 Sudoeste 11 Oeste 0 -- -- 91
2017-12-11 10:00:00 5.1 5 Sudoeste 14 Sudoeste 0.2 -- -- 90
2017-12-11 09:00:00 5 6 Sudoeste 13 Sur 1.4 -- -- 90
2017-12-11 08:00:00 5.1 4 Sudoeste 18 Sudoeste 0.4 -- -- 89
2017-12-11 07:00:00 5.2 4 Nordeste 38 Noroeste 1.6 -- -- 92
2017-12-11 06:00:00 6.8 3 Este 21 Noroeste 0 -- -- 95
2017-12-11 05:00:00 7.6 8 Oeste 26 Noroeste 1.4 -- -- 88
2017-12-11 04:00:00 8.2 5 Noroeste 44 Sudoeste 1.4 -- -- 93
2017-12-11 03:00:00 11 9 Sudoeste 36 Sudoeste 4.6 -- -- 85
2017-12-11 02:00:00 12.4 23 Sudoeste 56 Sur 1 -- -- 75
2017-12-11 01:00:00 13.7 30 Sudoeste 50 Sur 0 -- -- 66
2017-12-11 00:00:00 13.5 20 Sudoeste 52 Sudoeste 0 -- -- 65
2017-12-10 23:00:00 13.3 23 Sudoeste 55 Sudoeste 0 -- -- 67
2017-12-10 22:00:00 12.6 18 Sur 45 Sur 0 -- -- 71
2017-12-10 21:00:00 12.5 18 Sur 42 Sur 0 -- -- 73
2017-12-10 20:00:00 14.8 29 Sudoeste 66 Sudoeste 0.4 -- -- 62
2017-12-10 19:00:00 14.7 21 Oeste 57 Oeste 0 -- -- 65
2017-12-10 18:00:00 14.5 20 Oeste 60 Noroeste 0 -- -- 67
2017-12-10 17:00:00 14.2 12 Oeste 48 Oeste 0 -- -- 68
2017-12-10 16:00:00 13.6 13 Sudoeste 42 Sudoeste 0 -- -- 71
2017-12-10 15:00:00 13.7 17 Sudoeste 45 Sudoeste 0 -- -- 70
2017-12-10 14:00:00 13.3 20 Sudoeste 42 Sur 0 -- -- 72
2017-12-10 13:00:00 13 16 Sudoeste 43 Sur 0 -- -- 73
2017-12-10 12:00:00 13.1 16 Sudoeste 44 Oeste 0 -- -- 70
2017-12-10 11:00:00 13 14 Sudoeste 37 Oeste 0.2 -- -- 70
2017-12-10 10:00:00 12.2 22 Sudoeste 34 Sudoeste 0 -- -- 72
2017-12-10 09:00:00 12 10 Sudoeste 30 Oeste 0 -- -- 72
2017-12-10 08:00:00 11.6 9 Sudoeste 28 Sudoeste 0 -- -- 74
2017-12-10 07:00:00 10 4 Oeste 10 Sudoeste 0 -- -- 85
2017-12-10 06:00:00 9.5 3 Oeste 12 Oeste 0 -- -- 88
2017-12-10 05:00:00 9 3 Oeste 8 Oeste 0 -- -- 92
2017-12-10 04:00:00 9 2 Oeste 13 Sudoeste 0 -- -- 93
2017-12-10 03:00:00 8.2 3 Oeste 9 Oeste 0 -- -- 100
2017-12-10 02:00:00 8.1 0 Calma 8 Norte 0 -- -- 100
2017-12-10 01:00:00 8.6 0 Calma 10 Sudoeste 0.2 -- -- 100
2017-12-10 00:00:00 7.9 2 Nordeste 6 Norte 0.6 -- -- 100
2017-12-09 23:00:00 7.3 0 Calma 9 Nordeste 0.4 -- -- 100
2017-12-09 22:00:00 7.3 3 Sudeste 7 Sudeste 2.2 -- -- 100
2017-12-09 21:00:00 6.5 0 Calma 5 Sur 2.8 -- -- 100
2017-12-09 20:00:00 6.3 0 Calma 9 Oeste 2.2 -- -- 99
2017-12-09 19:00:00 6.3 5 Oeste 17 Oeste 1.8 -- -- 95
2017-12-09 18:00:00 6.3 6 Sudoeste 13 Oeste 0.2 -- -- 91
2017-12-09 17:00:00 -- 2 Oeste 14 Sudoeste 0.2 -- -- --
2017-12-09 16:00:00 6.9 7 Sudoeste 15 Sudoeste 0 -- -- 84
2017-12-09 15:00:00 7.3 0 Calma 8 Sudoeste 0 -- -- 80
2017-12-09 14:00:00 7.3 4 Sudoeste 10 Sudoeste 0 -- -- 84
2017-12-09 13:00:00 6.9 4 Sudoeste 10 Sur 0 -- -- 86
2017-12-09 12:00:00 5.8 0 Calma 4 Sur 0 -- -- 92
2017-12-09 11:00:00 5.8 0 Calma 4 Sur 0 -- -- 100
2017-12-09 10:00:00 4.6 0 Calma 5 Sudeste 0 -- -- 100
2017-12-09 09:00:00 4 0 Calma 4 Sudeste 0.8 -- -- 100
2017-12-09 08:00:00 3.7 0 Calma 5 Sur 0.2 -- -- 100
2017-12-09 07:00:00 3.8 0 Calma 6 Este 0.8 -- -- 100
2017-12-09 06:00:00 3.9 0 Calma 4 Sudoeste 0.6 -- -- 100
2017-12-09 05:00:00 4.3 0 Calma 8 Sudoeste 1.8 -- -- 100
2017-12-09 04:00:00 4.3 0 Calma 9 Sudoeste 0.2 -- -- 99
2017-12-09 03:00:00 4.6 3 Sudoeste 11 Noroeste 0.6 -- -- 100
2017-12-09 02:00:00 4.8 3 Sur 10 Sudoeste 0.6 -- -- 100
2017-12-09 01:00:00 5 4 Sudeste 14 Nordeste 1 -- -- 100
2017-12-09 00:00:00 5.2 3 Sudeste 19 Este 0.6 -- -- 100
2017-12-08 23:00:00 5.5 3 Sudeste 13 Nordeste 1 -- -- 100
2017-12-08 22:00:00 5.7 3 Este 12 Este 0.8 -- -- 100
2017-12-08 21:00:00 5.7 4 Sur 9 Sudoeste 0.4 -- -- 100
2017-12-08 20:00:00 6 3 Sudeste 8 Sudeste 0.4 -- -- 100
2017-12-08 19:00:00 6.1 0 Calma 9 Oeste 0.4 -- -- 100
2017-12-08 18:00:00 6.2 3 Sur 8 Noroeste 1 -- -- 100
2017-12-08 17:00:00 6.5 3 Sur 10 Sudeste 0.6 -- -- 100
2017-12-08 16:00:00 6.7 3 Este 8 Sudeste 0.4 -- -- 100
2017-12-08 15:00:00 6.9 2 Sur 11 Sudoeste 0.8 -- -- 100
2017-12-08 14:00:00 7.5 4 Este 8 Nordeste 1.4 -- -- 100
2017-12-08 13:00:00 7.6 3 Sur 8 Sur 0.6 -- -- 100
2017-12-08 12:00:00 7.4 2 Sudeste 8 Este 1 -- -- 100
2017-12-08 11:00:00 6.3 0 Calma 2 Sudoeste 0.6 -- -- 100
2017-12-08 10:00:00 5.6 0 Calma 2 Oeste 1.4 -- -- 100
2017-12-08 09:00:00 5.4 0 Calma 2 Sudoeste 1.6 -- -- 100
2017-12-08 08:00:00 5.2 0 Calma 2 Oeste 1.2 -- -- 100
2017-12-08 07:00:00 5.4 0 Calma 3 Oeste 1 -- -- 100
2017-12-08 06:00:00 5.4 0 Calma 3 Oeste 0.8 -- -- 100
2017-12-08 05:00:00 5.4 0 Calma 2 Sudoeste 0.4 -- -- 99
2017-12-08 04:00:00 5.4 0 Calma 5 Oeste 1 -- -- 98
2017-12-08 03:00:00 5.7 0 Calma 17 Sudoeste 0.2 -- -- 94
2017-12-08 02:00:00 6.6 5 Sudoeste 14 Oeste 0.2 -- -- 85
2017-12-08 01:00:00 6.1 0 Calma 9 Oeste 0 -- -- 82
2017-12-08 00:00:00 5.8 0 Calma 8 Oeste 0 -- -- 81
2017-12-07 23:00:00 6.4 5 Oeste 11 Sudoeste 0.2 -- -- 73
2017-12-07 22:00:00 6.9 5 Oeste 11 Noroeste 0 -- -- 69
2017-12-07 21:00:00 5.5 0 Calma 15 Sudoeste 0 -- -- 74
2017-12-07 20:00:00 5.9 5 Sudoeste 16 Oeste 0 -- -- 72
2017-12-07 19:00:00 6.5 6 Oeste 16 Oeste 0 -- -- 68
2017-12-07 18:00:00 6 0 Calma 15 Oeste 0 -- -- 86
2017-12-07 17:00:00 6.9 7 Oeste 12 Sudoeste 0 -- -- 75
2017-12-07 16:00:00 8.5 7 Oeste 14 Oeste 0 -- -- 60
2017-12-07 15:00:00 8.8 9 Sudoeste 25 Sudoeste 0 -- -- 56
2017-12-07 14:00:00 9.8 14 Sudoeste 28 Sudoeste 0 -- -- 57
2017-12-07 13:00:00 9.7 10 Sudoeste 22 Sur 0 -- -- 54
2017-12-07 12:00:00 8.2 12 Sudoeste 27 Sur 0 -- -- 55
2017-12-07 11:00:00 7.1 11 Sudoeste 27 Sudoeste 0 -- -- 58
2017-12-07 10:00:00 6 10 Sudoeste 23 Sudoeste 0 -- -- 62
2017-12-07 09:00:00 6 7 Oeste 18 Oeste 0 -- -- 59
2017-12-07 08:00:00 5.7 8 Oeste 15 Oeste 0 -- -- 61
2017-12-07 07:00:00 5.4 6 Oeste 14 Oeste 0 -- -- 64
2017-12-07 06:00:00 5.6 9 Oeste 24 Oeste 0 -- -- 63
2017-12-07 05:00:00 5.6 9 Oeste 18 Sudoeste 0 -- -- 61
2017-12-07 04:00:00 5.1 6 Oeste 15 Oeste 0 -- -- 65
2017-12-07 03:00:00 5.5 6 Oeste 22 Oeste 0 -- -- 62
2017-12-07 02:00:00 5.4 10 Oeste 22 Sudoeste 0 -- -- 61
2017-12-07 01:00:00 5.1 7 Oeste 19 Oeste 0 -- -- 63
2017-12-07 00:00:00 3.7 3 Oeste 12 Noroeste 0 -- -- 72
2017-12-06 23:00:00 3.3 2 Oeste 12 Noroeste 0 -- -- 77
2017-12-06 22:00:00 2 2 Oeste 8 Oeste 0 -- -- 85
2017-12-06 21:00:00 2.3 0 Calma 2 Noroeste 0 -- -- 86
2017-12-06 20:00:00 2.7 0 Calma 3 Oeste 0 -- -- 86
2017-12-06 19:00:00 3.7 0 Calma 3 Oeste 0 -- -- 83
2017-12-06 18:00:00 5.3 0 Calma 8 Noroeste 0 -- -- 74
2017-12-06 17:00:00 7.6 3 Oeste 21 Sudoeste 0 -- -- 63
2017-12-06 16:00:00 10.2 4 Oeste 12 Sudoeste 0 -- -- 59
2017-12-06 15:00:00 10.7 4 Oeste 13 Sudeste 0 -- -- 56
2017-12-06 14:00:00 10.3 6 Sur 20 Sur 0 -- -- 58
2017-12-06 13:00:00 9.1 9 Sur 26 Sudeste 0 -- -- 61
2017-12-06 12:00:00 8.2 8 Sudoeste 27 Sudoeste 0 -- -- 62
2017-12-06 11:00:00 6.7 5 Sudoeste 16 Oeste 0 -- -- 70
2017-12-06 10:00:00 3.8 4 Sudoeste 9 Sudoeste 0 -- -- 84
2017-12-06 09:00:00 1.8 3 Oeste 9 Oeste 0 -- -- 90
2017-12-06 08:00:00 3.2 3 Oeste 13 Noroeste 0 -- -- 83
2017-12-06 07:00:00 3.2 5 Oeste 25 Sudoeste 0 -- -- 85
2017-12-06 06:00:00 4.3 10 Sudoeste 23 Sudoeste 0 -- -- 80
2017-12-06 05:00:00 4.6 12 Sudoeste 26 Sur 0 -- -- 80
2017-12-06 04:00:00 2.3 6 Sudoeste 16 Noroeste 0 -- -- 95
2017-12-06 03:00:00 0.7 2 Sur 8 Sur 0 -- -- 100
2017-12-06 02:00:00 0.2 2 Sur 7 Noroeste 0 -- -- 100
2017-12-06 01:00:00 -0.2 0 Calma 2 Este 0 -- -- 100
2017-12-06 00:00:00 -0.3 0 Calma 0 Calma 0 -- -- 100
2017-12-05 23:00:00 -0.1 0 Calma 0 Calma 0 -- -- 100
2017-12-05 22:00:00 0.3 0 Calma 2 Sudeste 0 -- -- 100
2017-12-05 21:00:00 0.5 0 Calma 0 Calma 0 -- -- 100
2017-12-05 20:00:00 1.1 0 Calma 0 Calma 0 -- -- 98
2017-12-05 19:00:00 2 0 Calma 2 Sudeste 0 -- -- 96
2017-12-05 18:00:00 3.4 0 Calma 0 Calma 0 -- -- 88
2017-12-05 17:00:00 6.3 0 Calma 3 Sudeste 0 -- -- 78
2017-12-05 16:00:00 9.1 0 Calma 6 Norte 0 -- -- 68
2017-12-05 15:00:00 8.9 3 Sudeste 6 Sur 0 -- -- 63
2017-12-05 14:00:00 8.3 2 Este 5 Este 0 -- -- 66
2017-12-05 13:00:00 7.3 3 Este 8 Este 0 -- -- 73
2017-12-05 12:00:00 6.2 0 Calma 4 Sur 0 -- -- 83
2017-12-05 11:00:00 3.6 0 Calma 2 Sudoeste 0 -- -- 100
2017-12-05 10:00:00 0.8 0 Calma -- -- 0 -- -- 100
2017-12-05 09:00:00 -0.8 0 Calma 2 Sudoeste 0 -- -- 100
2017-12-05 08:00:00 -0.7 0 Calma 2 Sudoeste 0 -- -- 100
2017-12-05 07:00:00 -0.6 0 Calma 2 Sudoeste 0 -- -- 100
2017-12-05 06:00:00 -0.3 0 Calma 2 Sudoeste 0 -- -- 100
2017-12-05 05:00:00 0 0 Calma 4 Sudoeste 0 -- -- 100
2017-12-05 04:00:00 0.1 0 Calma 2 Sur 0 -- -- 100
2017-12-05 03:00:00 0.3 0 Calma 2 Sudoeste 0 -- -- 100
2017-12-05 02:00:00 0.8 0 Calma 3 Sudoeste 0 -- -- 100
2017-12-05 01:00:00 0.8 0 Calma 4 Sudoeste 0 -- -- 100
2017-12-05 00:00:00 0.8 0 Calma 2 Sudoeste 0 -- -- 100
2017-12-04 23:00:00 1.2 0 Calma 2 Sudoeste 0 -- -- 100
2017-12-04 22:00:00 1.6 0 Calma 2 Sudoeste 0 -- -- 100
2017-12-04 21:00:00 1.7 0 Calma 2 Sudoeste 0 -- -- 100
2017-12-04 20:00:00 2.2 0 Calma 3 Sudoeste 0 -- -- 100
2017-12-04 19:00:00 2.1 0 Calma 2 Sudoeste 0 -- -- 100
2017-12-04 18:00:00 3.5 0 Calma 2 Sudoeste 0 -- -- 100
2017-12-04 17:00:00 4.7 0 Calma 2 Sudoeste 0 -- -- 100
2017-12-04 16:00:00 5.4 0 Calma 4 Sudoeste 0 -- -- 100
2017-12-04 15:00:00 5.6 0 Calma 0 Calma 0 -- -- 100
2017-12-04 14:00:00 5.6 0 Calma 2 Sudoeste 0 -- -- 100
2017-12-04 13:00:00 5.5 0 Calma 2 Sudoeste 0 -- -- 100
2017-12-04 12:00:00 4.5 0 Calma 4 Sudoeste 0 -- -- 100
2017-12-04 11:00:00 3.4 0 Calma 0 Calma 0.2 -- -- 100
2017-12-04 10:00:00 2.7 0 Calma 2 Sudoeste 0 -- -- 100
2017-12-04 09:00:00 2.1 0 Calma 2 Sudoeste 0 -- -- 100
2017-12-04 08:00:00 2.1 0 Calma 2 Sudoeste 0 -- -- 100
2017-12-04 07:00:00 2 0 Calma 2 Sudoeste 0 -- -- 100
2017-12-04 06:00:00 1.7 0 Calma 2 Sudoeste 0 -- -- 100
2017-12-04 05:00:00 1.8 0 Calma 2 Sudoeste 0.2 -- -- 100
2017-12-04 04:00:00 1.8 0 Calma 0 Calma 0 -- -- 100
2017-12-04 03:00:00 1.7 0 Calma 2 Sudoeste 0.2 -- -- 100
2017-12-04 02:00:00 1.6 0 Calma 3 Sudoeste 1.2 -- -- 100
2017-12-04 01:00:00 1.4 0 Calma 3 Sudoeste 0.8 -- -- 100
2017-12-04 00:00:00 1.4 0 Calma 2 Sudoeste 0 -- -- 100
2017-12-03 23:00:00 1.5 0 Calma 3 Sudoeste 0 -- -- 100
2017-12-03 22:00:00 1.1 0 Calma 2 Sudoeste 0.2 -- -- 100
2017-12-03 21:00:00 1 0 Calma 2 Sudoeste 0.4 -- -- 100
2017-12-03 20:00:00 1.1 0 Calma 3 Sudoeste 0 -- -- 100
2017-12-03 19:00:00 1.1 0 Calma 2 Sudoeste 0 -- -- 100
2017-12-03 18:00:00 1.3 0 Calma 2 Sudoeste 0 -- -- 100
2017-12-03 17:00:00 1.7 0 Calma 2 Sudoeste 0 -- -- 97
2017-12-03 16:00:00 2.9 0 Calma 2 Sudoeste 0 -- -- 91
2017-12-03 15:00:00 3.8 0 Calma 5 Sudoeste 0 -- -- 84
2017-12-03 14:00:00 4.1 0 Calma 3 Oeste 0 -- -- 83
2017-12-03 13:00:00 3.4 0 Calma 0 Calma 0 -- -- 83
2017-12-03 12:00:00 1 0 Calma -- -- 0 -- -- 90
2017-12-03 11:00:00 -1.2 0 Calma -- -- 0 -- -- 98
2017-12-03 10:00:00 -3.1 0 Calma -- -- 0 -- -- 100
2017-12-03 09:00:00 -4.7 0 Calma -- -- 0 -- -- 100
2017-12-03 08:00:00 -4.9 0 Calma -- -- 0 -- -- 100
2017-12-03 07:00:00 -4.4 0 Calma -- -- 0 -- -- 100
2017-12-03 06:00:00 -4.1 0 Calma -- -- 0 -- -- 100
2017-12-03 05:00:00 -4.2 0 Calma -- -- 0 -- -- 100
2017-12-03 04:00:00 -3.5 0 Calma -- -- 0 -- -- 100
2017-12-03 03:00:00 -3.1 0 Calma -- -- 0 -- -- 100
2017-12-03 02:00:00 -3 0 Calma 0 Calma 0 -- -- 99
2017-12-03 01:00:00 -2.6 0 Calma 0 Calma 0 -- -- 99
2017-12-03 00:00:00 -2.3 0 Calma 0 Calma 0 -- -- 98
2017-12-02 23:00:00 -0.9 0 Calma 6 Nordeste 0 -- -- 94
2017-12-02 22:00:00 0.5 0 Calma 8 Nordeste 0 -- -- 93
2017-12-02 21:00:00 0.6 0 Calma 8 Nordeste 0 -- -- 98
2017-12-02 20:00:00 0.6 0 Calma 11 Este 0 -- -- 100
2017-12-02 19:00:00 0.3 0 Calma 5 Este 0 -- -- 100
2017-12-02 18:00:00 0.1 0 Calma 0 Calma 0 -- -- 100
2017-12-02 17:00:00 0.4 0 Calma 4 Este 0 -- -- 97
2017-12-02 16:00:00 0.7 0 Calma 2 Noroeste 0 -- -- 96
2017-12-02 15:00:00 1.1 0 Calma 0 Calma 0 -- -- 95
2017-12-02 14:00:00 0.4 0 Calma 3 Nordeste 0.2 -- -- 95
2017-12-02 13:00:00 0.4 0 Calma 5 Norte 0.2 -- -- 97
2017-12-02 12:00:00 -0.1 0 Calma 2 Norte 1.8 -- -- 99
2017-12-02 11:00:00 0.6 0 Calma -- -- 0.2 -- -- 97
2017-12-02 10:00:00 -0.2 0 Calma -- -- 0.6 -- -- 98
2017-12-02 09:00:00 -0.2 0 Calma -- -- 0.2 -- -- 98
2017-12-02 08:00:00 -0.6 0 Calma -- -- 0 -- -- 98
2017-12-02 07:00:00 -0.6 0 Calma -- -- 0 -- -- 99
2017-12-02 06:00:00 -0.2 0 Calma -- -- 0 -- -- 100
2017-12-02 05:00:00 0.2 0 Calma -- -- 0 -- -- 100
2017-12-02 04:00:00 0.3 0 Calma -- -- 0 -- -- 100
2017-12-02 03:00:00 0.3 0 Calma -- -- 1 -- -- 100
2017-12-02 02:00:00 0.1 0 Calma -- -- 2.4 -- -- 100
2017-12-02 01:00:00 0.2 0 Calma -- -- 1.2 -- -- 100
2017-12-02 00:00:00 0.2 0 Calma 0 Calma 1.8 -- -- 100
2017-12-01 23:00:00 0.1 0 Calma -- -- 1 -- -- 100
2017-12-01 22:00:00 -0.3 0 Calma -- -- 0.6 -- -- 100
2017-12-01 21:00:00 -0.6 0 Calma -- -- 1 -- -- 100
2017-12-01 20:00:00 -0.9 0 Calma -- -- 0.4 -- -- 100
2017-12-01 19:00:00 -1.2 0 Calma -- -- 0 -- -- 100
2017-12-01 18:00:00 -0.8 0 Calma -- -- 0 -- -- 100
2017-12-01 17:00:00 -0.6 0 Calma -- -- 0 -- -- 100
2017-12-01 16:00:00 -0.2 0 Calma -- -- 0 -- -- 99
2017-12-01 15:00:00 0.1 0 Calma -- -- 0.2 -- -- 98
2017-12-01 14:00:00 0 0 Calma -- -- 1 -- -- 97
2017-12-01 13:00:00 0.1 0 Calma -- -- 0.6 -- -- 97
2017-12-01 12:00:00 0.3 0 Calma -- -- 0.8 -- -- 96
2017-12-01 11:00:00 -0.2 0 Calma -- -- 0 -- -- 95
2017-12-01 10:00:00 -0.5 0 Calma -- -- 3.2 -- -- 100
2017-12-01 09:00:00 0.1 0 Calma 10 Este 4.2 -- -- 100
2017-12-01 08:00:00 1.4 4 Este 17 Nordeste 1.8 -- -- 100
2017-12-01 07:00:00 1.7 3 Sur 14 Oeste 3.4 -- -- 100
2017-12-01 06:00:00 1.4 3 Sur 14 Oeste 5.6 -- -- 98
2017-12-01 05:00:00 2 7 Sudoeste 21 Sudoeste 2.4 -- -- 98
2017-12-01 04:00:00 3 5 Oeste 15 Noroeste 3.4 -- -- 99
2017-12-01 03:00:00 2.4 3 Sudoeste 17 Sudoeste 4 -- -- 99
2017-12-01 02:00:00 2.7 8 Sudoeste 23 Sudoeste 3 -- -- 100
2017-12-01 01:00:00 1.3 2 Sur 13 Sudoeste 3 -- -- 100
2017-12-01 00:00:00 1.6 4 Sudoeste 17 Sudoeste 4.4 -- -- 100
2017-11-30 23:00:00 1.7 2 Oeste 19 Oeste 3.2 -- -- 99
2017-11-30 22:00:00 2.3 8 Sudoeste 18 Sudoeste 2.2 -- -- 97
2017-11-30 21:00:00 2.7 5 Sudoeste 21 Sudoeste 1.6 -- -- 97
2017-11-30 20:00:00 2.4 5 Sudoeste 13 Sur 0.8 -- -- 100
2017-11-30 19:00:00 1.7 0 Calma 10 Oeste 0.6 -- -- 100
2017-11-30 18:00:00 0.4 0 Calma 4 Noroeste 0.8 -- -- 100
2017-11-30 17:00:00 0.5 0 Calma 0 Calma 3.4 -- -- 100
2017-11-30 16:00:00 1.2 0 Calma 2 Nordeste 4.2 -- -- 98
2017-11-30 15:00:00 2.6 0 Calma 8 Nordeste 2.8 -- -- 98
2017-11-30 14:00:00 4.1 3 Oeste 10 Noroeste 0.2 -- -- 96
2017-11-30 13:00:00 3.4 2 Norte 4 Norte 0 -- -- 100
2017-11-30 12:00:00 2.1 0 Calma 4 Noroeste 0 -- -- 100
2017-11-30 11:00:00 1.2 0 Calma 4 Norte 0.4 -- -- 100
2017-11-30 10:00:00 0.6 0 Calma 2 Noroeste 0.2 -- -- 100
2017-11-30 09:00:00 0.3 0 Calma 0 Calma 0 -- -- 100
2017-11-30 08:00:00 0.2 0 Calma 2 Noroeste 0.2 -- -- 100
2017-11-30 07:00:00 0.2 0 Calma 2 Noroeste 0.6 -- -- 100
2017-11-30 06:00:00 0.3 0 Calma 2 Noroeste 0.8 -- -- 100
2017-11-30 05:00:00 0.4 0 Calma 2 Norte 0 -- -- 100
2017-11-30 04:00:00 0.3 0 Calma 2 Norte 0 -- -- 100
2017-11-30 03:00:00 0.2 0 Calma 2 Norte 0 -- -- 100
2017-11-30 02:00:00 0.5 3 Noroeste 6 Noroeste 0.6 -- -- 100
2017-11-30 01:00:00 0.7 0 Calma 4 Noroeste 0.4 -- -- 100
2017-11-30 00:00:00 0.7 0 Calma 9 Nordeste 0 -- -- 100
2017-11-29 23:00:00 0.5 0 Calma 3 Noroeste 0 -- -- 100
2017-11-29 22:00:00 0.6 0 Calma 2 Noroeste 0 -- -- 100
2017-11-29 21:00:00 0.7 0 Calma 4 Oeste 1.4 -- -- 100
2017-11-29 20:00:00 1.2 0 Calma 3 Nordeste 1.2 -- -- 100
2017-11-29 19:00:00 1.2 0 Calma 2 Nordeste 0.4 -- -- 100
2017-11-29 18:00:00 1.2 0 Calma 4 Nordeste 1.4 -- -- 99
2017-11-29 17:00:00 2 0 Calma 4 Sudoeste 0 -- -- 98
2017-11-29 16:00:00 1.8 0 Calma 16 Nordeste 3.8 -- -- 95
2017-11-29 15:00:00 4.5 5 Norte 13 Oeste 0.4 -- -- 92
2017-11-29 14:00:00 5 3 Noroeste 7 Noroeste 0.2 -- -- 94
2017-11-29 13:00:00 4.3 4 Sudoeste 9 Sur 0.8 -- -- 97
2017-11-29 12:00:00 3.8 0 Calma 8 Sudoeste 1.2 -- -- 98
2017-11-29 11:00:00 3.8 2 Oeste 7 Noroeste 1.6 -- -- 96
2017-11-29 10:00:00 3.8 0 Calma 4 Sudeste 0.2 -- -- 99
2017-11-29 09:00:00 3.5 0 Calma 17 Noroeste 1.4 -- -- 100
2017-11-29 08:00:00 4 0 Calma 6 Nordeste 0.6 -- -- 100
2017-11-29 07:00:00 4.1 2 Norte 6 Noroeste 2 -- -- 100
2017-11-29 06:00:00 4 0 Calma 4 Este 0.4 -- -- 100
2017-11-29 05:00:00 4 0 Calma 3 Nordeste 0 -- -- 100
2017-11-29 04:00:00 4.8 0 Calma 4 Este 0 -- -- 100
2017-11-29 03:00:00 5.2 0 Calma 4 Este 0.6 -- -- 100
2017-11-29 02:00:00 5.4 0 Calma 8 Oeste 2.2 -- -- 100
2017-11-29 01:00:00 5.7 0 Calma 2 Sudeste 0.8 -- -- 99
2017-11-29 00:00:00 5.9 0 Calma 8 Este 0.6 -- -- 97
2017-11-28 23:00:00 6.3 4 Este 12 Este 0.8 -- -- 98
2017-11-28 22:00:00 6.6 0 Calma 9 Noroeste 0.8 -- -- 97
2017-11-28 21:00:00 7 2 Sudeste 12 Este 0.2 -- -- 93
2017-11-28 20:00:00 8.1 0 Calma 8 Sudoeste 0 -- -- 77
2017-11-28 19:00:00 8.6 0 Calma 5 Sur 0 -- -- 72
2017-11-28 18:00:00 9 0 Calma 8 Sudoeste 0 -- -- 70
2017-11-28 17:00:00 9.5 4 Oeste 17 Sudoeste 0 -- -- 66
2017-11-28 16:00:00 10 5 Noroeste 17 Noroeste 0 -- -- 64
2017-11-28 15:00:00 10.2 7 Oeste 22 Noroeste 0 -- -- 63
2017-11-28 14:00:00 11.2 8 Sudoeste 22 Sudoeste 0 -- -- 60
2017-11-28 13:00:00 9.6 10 Sudoeste 19 Oeste 0 -- -- 68
2017-11-28 12:00:00 7.6 3 Oeste 10 Noroeste 0 -- -- 73
2017-11-28 11:00:00 5.6 0 Calma 4 Oeste 0 -- -- 90
2017-11-28 10:00:00 1.4 0 Calma 3 Noroeste 0 -- -- 100
2017-11-28 09:00:00 -0.5 0 Calma 2 Noroeste 0 -- -- 99
2017-11-28 08:00:00 -0.2 0 Calma 2 Noroeste 0 -- -- 98
2017-11-28 07:00:00 -0.1 0 Calma 2 Noroeste 0 -- -- 97
2017-11-28 06:00:00 0 0 Calma 3 Noroeste 0 -- -- 94
2017-11-28 05:00:00 0.7 0 Calma 2 Noroeste 0 -- -- 91
2017-11-28 04:00:00 0.5 0 Calma 3 Oeste 0 -- -- 92
2017-11-28 03:00:00 1.2 0 Calma 3 Oeste 0 -- -- 88
2017-11-28 02:00:00 2.1 0 Calma 2 Noroeste 0 -- -- 84
2017-11-28 01:00:00 3 0 Calma 7 Oeste 0 -- -- 81
2017-11-28 00:00:00 2.9 0 Calma 2 Norte 0 -- -- 81
2017-11-27 23:00:00 3.1 0 Calma 2 Norte 0 -- -- 79
2017-11-27 22:00:00 3.8 0 Calma 6 Este 0 -- -- 78
2017-11-27 21:00:00 4.2 3 Sudoeste 13 Oeste 0 -- -- 77
2017-11-27 20:00:00 4.5 0 Calma 5 Noroeste 0 -- -- 73
2017-11-27 19:00:00 5.2 2 Noroeste 7 Oeste 0 -- -- 76
2017-11-27 18:00:00 6.4 0 Calma 6 Oeste 0 -- -- 69
2017-11-27 17:00:00 8.7 2 Oeste 8 Sudoeste 0 -- -- 61
2017-11-27 16:00:00 10 0 Calma 8 Sur 0 -- -- 75
2017-11-27 15:00:00 10.3 2 Sudeste 8 Sur 0 -- -- 60
2017-11-27 14:00:00 10.6 2 Este 5 Este 0 -- -- 66
2017-11-27 13:00:00 9.6 2 Este 4 Noroeste 0 -- -- 67
2017-11-27 12:00:00 7.1 0 Calma 4 Noroeste 0 -- -- 84
2017-11-27 11:00:00 3 0 Calma 2 Norte 0 -- -- 100
2017-11-27 10:00:00 1.2 0 Calma 0 Calma 0 -- -- 100
2017-11-27 09:00:00 0.2 0 Calma 2 Norte 0 -- -- 100
2017-11-27 08:00:00 -0.1 0 Calma 2 Norte 0 -- -- 100
2017-11-27 07:00:00 -0.2 0 Calma 2 Norte 0 -- -- 100
2017-11-27 06:00:00 -0.1 0 Calma 2 Norte 0 -- -- 100
2017-11-27 05:00:00 0.4 0 Calma 2 Norte 0 -- -- 100
2017-11-27 04:00:00 0.8 0 Calma 2 Noroeste 0 -- -- 100
2017-11-27 03:00:00 1.2 0 Calma 2 Noroeste 0 -- -- 100
2017-11-27 02:00:00 1.5 0 Calma 2 Noroeste 0 -- -- 100
2017-11-27 01:00:00 1.8 0 Calma 0 Calma 0 -- -- 100
2017-11-27 00:00:00 2 0 Calma 2 Noroeste 0 -- -- 100
2017-11-26 23:00:00 2.1 0 Calma 2 Noroeste 0 -- -- 100
2017-11-26 22:00:00 2.8 0 Calma 3 Noroeste 0 -- -- 100
2017-11-26 21:00:00 2.8 0 Calma 0 Calma 0 -- -- 99
2017-11-26 20:00:00 3.6 0 Calma 3 Noroeste 0 -- -- 98
2017-11-26 19:00:00 4.7 0 Calma 2 Noroeste 0 -- -- 95
2017-11-26 18:00:00 5.7 0 Calma 5 Norte 0 -- -- 89
2017-11-26 17:00:00 6.8 0 Calma 8 Nordeste 0 -- -- 85
2017-11-26 16:00:00 7.5 2 Oeste 10 Nordeste 0 -- -- 77
2017-11-26 15:00:00 7.5 2 Oeste 14 Oeste 0 -- -- 77
2017-11-26 14:00:00 8.2 4 Oeste 13 Oeste 0 -- -- 79
2017-11-26 13:00:00 7.5 3 Sur 8 Sudoeste 0.2 -- -- 90
2017-11-26 12:00:00 6.3 0 Calma 6 Oeste 0.2 -- -- 92
2017-11-26 11:00:00 6.4 0 Calma 9 Nordeste 0.2 -- -- 100
2017-11-26 10:00:00 4.9 0 Calma 5 Este 0.2 -- -- 100
2017-11-26 09:00:00 4.3 0 Calma 8 Este 0.4 -- -- 100
2017-11-26 08:00:00 4.1 2 Este 6 Este 2 -- -- 100
2017-11-26 07:00:00 3.7 0 Calma 5 Noroeste 0.2 -- -- 100
2017-11-26 06:00:00 3.8 2 Este 3 Este 0.6 -- -- 100
2017-11-26 05:00:00 4.1 0 Calma 5 Sudeste 0.4 -- -- 100
2017-11-26 04:00:00 3.6 0 Calma 7 Sudeste 0 -- -- 100
2017-11-26 03:00:00 3.7 2 Sudeste 10 Este 0.8 -- -- 100
2017-11-26 02:00:00 3.9 2 Sudeste 13 Este 1.4 -- -- 100
2017-11-26 01:00:00 3.7 0 Calma 3 Nordeste 0.2 -- -- 100
2017-11-26 00:00:00 3.8 0 Calma 11 Sudoeste 0.8 -- -- 100
2017-11-25 23:00:00 3.3 0 Calma 4 Este 0 -- -- 100
2017-11-25 22:00:00 -- 0 Calma 12 Oeste 0.4 -- -- --
2017-11-25 21:00:00 3.5 0 Calma 2 Nordeste 0 -- -- 97
2017-11-25 20:00:00 4.1 0 Calma 4 Nordeste 0 -- -- 97
2017-11-25 19:00:00 4.7 0 Calma 3 Nordeste 0 -- -- 96
2017-11-25 18:00:00 5.2 0 Calma 22 Nordeste 0 -- -- 91
2017-11-25 17:00:00 6.4 3 Este 12 Este 0 -- -- 90
2017-11-25 16:00:00 6.9 5 Este 27 Este 0 -- -- 90
2017-11-25 15:00:00 7 4 Sur 18 Nordeste 0.8 -- -- 94
2017-11-25 14:00:00 7.3 2 Sudeste 19 Este 0.4 -- -- 93
2017-11-25 13:00:00 8.5 5 Nordeste 18 Este 0 -- -- 86
2017-11-25 12:00:00 7.7 5 Sudeste 21 Norte 0.6 -- -- 96
2017-11-25 11:00:00 7.8 6 Sur 22 Nordeste 1 -- -- 98
2017-11-25 10:00:00 7.9 6 Sudoeste 17 Este 1 -- -- 99
2017-11-25 09:00:00 7.8 5 Sur 13 Sudeste 1 -- -- 100
2017-11-25 08:00:00 7.8 0 Calma 6 Este 1.8 -- -- 99
2017-11-25 07:00:00 7.8 2 Norte 28 Este 0.2 -- -- 97
2017-11-25 06:00:00 9.3 6 Este 21 Este 4.4 -- -- 99
2017-11-25 05:00:00 9.9 0 Calma 11 Noroeste 2.2 -- -- 99
2017-11-25 04:00:00 9.9 2 Sudeste 5 Sudoeste 3 -- -- 99
2017-11-25 03:00:00 10.2 3 Este 11 Sur 2 -- -- 98
2017-11-25 02:00:00 10.6 3 Sudoeste 15 Norte 3.2 -- -- 96
2017-11-25 01:00:00 11.6 0 Calma 6 Noroeste 0.2 -- -- 92
2017-11-25 00:00:00 13.1 3 Nordeste 14 Oeste 0 -- -- 77
2017-11-24 23:00:00 13.9 5 Oeste 21 Sudoeste 0 -- -- 66
2017-11-24 22:00:00 13.4 12 Oeste 22 Sudoeste 0 -- -- 68
2017-11-24 21:00:00 12.9 9 Oeste 19 Sudoeste 0 -- -- 70
2017-11-24 20:00:00 12.9 5 Oeste 20 Sudoeste 0 -- -- 70
2017-11-24 19:00:00 14 8 Oeste 15 Sudoeste 0 -- -- 64
2017-11-24 18:00:00 14.1 6 Sudoeste 17 Sudoeste 0 -- -- 64
2017-11-24 17:00:00 14.7 8 Sur 14 Sudoeste 0 -- -- 63
2017-11-24 16:00:00 15.3 8 Sur 23 Sudoeste 0 -- -- 62
2017-11-24 15:00:00 15.2 7 Sur 30 Sudoeste 0 -- -- 61
2017-11-24 14:00:00 14.9 11 Sudoeste 24 Sudoeste 0 -- -- 64
2017-11-24 13:00:00 13.7 9 Sur 25 Sur 0 -- -- 65
2017-11-24 12:00:00 13 2 Sudoeste 14 Oeste 0 -- -- 65
2017-11-24 11:00:00 12.1 8 Sudoeste 21 Sudoeste 0.6 -- -- 74
2017-11-24 10:00:00 12 8 Sudoeste 29 Sudoeste 0.2 -- -- 72
2017-11-24 09:00:00 12 14 Sudoeste 33 Sur 0 -- -- 66
2017-11-24 08:00:00 12.5 20 Sudoeste 32 Sur 0 -- -- 62
2017-11-24 07:00:00 12 14 Sudoeste 33 Sudoeste 0 -- -- 65
2017-11-24 06:00:00 11.7 16 Sudoeste 27 Sur 0.2 -- -- 73
2017-11-24 05:00:00 13.5 10 Sur 42 Sudoeste 0 -- -- 50
2017-11-24 04:00:00 13.8 22 Sudoeste 44 Sur 0 -- -- 46
2017-11-24 03:00:00 14 28 Sur 44 Sur 0 -- -- 46
2017-11-24 02:00:00 14.2 22 Sudoeste 39 Sur 0 -- -- 46
2017-11-24 01:00:00 14.5 13 Sudoeste 28 Sudoeste 0 -- -- 45
2017-11-24 00:00:00 14.5 10 Oeste 32 Sudoeste 0 -- -- 46
2017-11-23 23:00:00 15.1 15 Sudoeste 39 Sudoeste 0 -- -- 46
2017-11-23 22:00:00 15.2 18 Sudoeste 41 Sur 0 -- -- 49
2017-11-23 21:00:00 15.1 16 Sudoeste 34 Sudoeste 0 -- -- 51
2017-11-23 20:00:00 15.5 11 Sudoeste 24 Sudoeste 0 -- -- 56
2017-11-23 19:00:00 15.5 13 Sudoeste 32 Sudoeste 0 -- -- 58
2017-11-23 18:00:00 16.1 16 Sudoeste 33 Oeste 0 -- -- 56
2017-11-23 17:00:00 16.1 11 Sudoeste 37 Sudoeste 0 -- -- 51
2017-11-23 16:00:00 16.8 13 Sudoeste 30 Sudoeste 0 -- -- 47
2017-11-23 15:00:00 16.9 15 Sudoeste 36 Sudoeste 0 -- -- 49
2017-11-23 14:00:00 17.2 24 Sudoeste 39 Sudoeste 0 -- -- 49
2017-11-23 13:00:00 16.6 16 Sudoeste 36 Sur 0 -- -- 51
2017-11-23 12:00:00 15.4 16 Sur 46 Sudoeste 0 -- -- 49
2017-11-23 11:00:00 14.3 19 Sudoeste 37 Sur 0 -- -- 49
2017-11-23 10:00:00 13.4 15 Sudoeste 33 Sudoeste 0 -- -- 51
2017-11-23 09:00:00 11.9 19 Sudoeste 37 Oeste 0.2 -- -- 56
2017-11-23 08:00:00 11.4 14 Sudoeste 36 Sudoeste 0.2 -- -- 60
2017-11-23 07:00:00 13 26 Sudoeste 41 Sudoeste 0 -- -- 42
2017-11-23 06:00:00 12.4 12 Sur 42 Sur 0 -- -- 43
2017-11-23 05:00:00 12.5 25 Sudoeste 45 Sudoeste 0 -- -- 41
2017-11-23 04:00:00 12.5 24 Sudoeste 46 Sudoeste 0 -- -- 41
2017-11-23 03:00:00 12.8 23 Sudoeste 41 Sur 0 -- -- 39
2017-11-23 02:00:00 -- 22 Sudoeste 50 Sur 0 -- -- --
2017-11-23 01:00:00 13.2 23 Sur 50 Sudoeste 0 -- -- 39
2017-11-23 00:00:00 13.1 26 Sudoeste 54 Sur 0 -- -- 40
2017-11-22 23:00:00 -- 21 Sudoeste 55 Sudoeste 0 -- -- --
2017-11-22 22:00:00 13.2 30 Sudoeste 63 Sur 0 -- -- 41
2017-11-22 21:00:00 13.6 27 Sur 58 Sudoeste 0 -- -- 39
2017-11-22 20:00:00 13.8 22 Sudoeste 51 Sudoeste 0 -- -- 40
2017-11-22 19:00:00 13.6 11 Sudoeste 33 Sur 0 -- -- 39
2017-11-22 18:00:00 14 13 Sudoeste 42 Sur 0 -- -- 43
2017-11-22 17:00:00 14.6 21 Sudoeste 44 Sudeste 0 -- -- 39
2017-11-22 16:00:00 16.2 15 Sur 39 Sur 0 -- -- 35
2017-11-22 15:00:00 16.2 20 Sur 42 Sudoeste 0 -- -- 37
2017-11-22 14:00:00 16.2 15 Sur 44 Sudoeste 0 -- -- 37
2017-11-22 13:00:00 15.5 20 Sur 45 Sudoeste 0 -- -- 35
2017-11-22 12:00:00 14.6 15 Sudoeste 36 Sudoeste 0 -- -- 39
2017-11-22 11:00:00 13.7 18 Sudoeste 36 Oeste 0 -- -- 40
2017-11-22 10:00:00 12.9 22 Oeste 39 Oeste 0 -- -- 39
2017-11-22 09:00:00 10.7 13 Oeste 32 Oeste 0 -- -- 45
2017-11-22 08:00:00 11.1 14 Oeste 28 Oeste 0 -- -- 44
2017-11-22 07:00:00 11.6 13 Oeste 38 Sudoeste 0 -- -- 41
2017-11-22 06:00:00 11.9 17 Sudoeste 41 Sudoeste 0 -- -- 43
2017-11-22 05:00:00 11.9 10 Oeste 36 Sur 0 -- -- 43
2017-11-22 04:00:00 12.2 9 Sudoeste 22 Sudoeste 0 -- -- 40
2017-11-22 03:00:00 11.9 12 Sudoeste 31 Sur 0 -- -- 38
2017-11-22 02:00:00 12 14 Sudoeste 39 Sudoeste 0 -- -- 39
2017-11-22 01:00:00 12 9 Oeste 21 Sudoeste 0 -- -- 36
2017-11-22 00:00:00 12.4 12 Oeste 31 Sudoeste 0 -- -- 37
2017-11-21 23:00:00 12.6 13 Oeste 26 Sudoeste 0 -- -- 37
2017-11-21 22:00:00 11.5 7 Oeste 24 Oeste 0 -- -- 46
2017-11-21 21:00:00 10.4 5 Oeste 14 Sudoeste 0 -- -- 54
2017-11-21 20:00:00 9.1 2 Oeste 8 Oeste 0 -- -- 65
2017-11-21 19:00:00 9.6 0 Calma 2 Sudoeste 0 -- -- 65
2017-11-21 18:00:00 11.2 0 Calma 3 Sudoeste 0 -- -- 57
2017-11-21 17:00:00 15.8 0 Calma 6 Oeste 0 -- -- 46
2017-11-21 16:00:00 18.9 3 Sudoeste 13 Sudoeste 0 -- -- 37
2017-11-21 15:00:00 19.5 4 Sudoeste 11 Sudoeste 0 -- -- 35
2017-11-21 14:00:00 19 4 Sudoeste 10 Sudoeste 0 -- -- 37
2017-11-21 13:00:00 -- -- -- -- -- -- -- -- --
2017-11-21 12:00:00 15.7 0 Calma 3 Sudeste 0 -- -- 52
2017-11-21 11:00:00 12.6 0 Calma 2 Sudeste 0 -- -- 65
2017-11-21 10:00:00 8.5 0 Calma 0 Calma 0 -- -- 81
2017-11-21 09:00:00 5.7 0 Calma -- -- 0 -- -- 79
2017-11-21 08:00:00 5.4 0 Calma 0 Calma 0 -- -- 81
2017-11-21 07:00:00 5.4 0 Calma 2 Este 0 -- -- 82
2017-11-21 06:00:00 5 0 Calma 0 Calma 0 -- -- 85
2017-11-21 05:00:00 5.2 0 Calma 0 Calma 0 -- -- 84
2017-11-21 04:00:00 5.6 0 Calma 0 Calma 0 -- -- 81
2017-11-21 03:00:00 5.7 0 Calma -- -- 0 -- -- 83
2017-11-21 02:00:00 5.8 0 Calma 0 Calma 0 -- -- 83
2017-11-21 01:00:00 6.3 0 Calma 2 Este 0 -- -- 81
2017-11-21 00:00:00 6.5 0 Calma 0 Calma 0 -- -- 80
2017-11-20 23:00:00 -- 0 Calma 0 Calma 0 -- -- --
2017-11-20 22:00:00 7.2 0 Calma 2 Sudeste 0 -- -- 78
2017-11-20 21:00:00 7.7 0 Calma -- -- 0 -- -- 77
2017-11-20 20:00:00 8.2 0 Calma 2 Sudeste 0 -- -- 75
2017-11-20 19:00:00 9.6 0 Calma 2 Este 0 -- -- 72
2017-11-20 18:00:00 11.7 0 Calma 2 Sudeste 0 -- -- 69
2017-11-20 17:00:00 15.8 0 Calma 2 Sudeste 0 -- -- 60
2017-11-20 16:00:00 18.7 0 Calma 4 Sudeste 0 -- -- 56
2017-11-20 15:00:00 19.5 2 Sudeste 5 Sudeste 0 -- -- 43
2017-11-20 14:00:00 17.9 3 Sudeste 5 Sudeste 0 -- -- 55
2017-11-20 13:00:00 15.7 3 Sudeste 4 Sudeste 0 -- -- 58
2017-11-20 12:00:00 13.5 0 Calma 4 Sudeste 0 -- -- 71
2017-11-20 11:00:00 9.9 0 Calma 3 Sudeste 0 -- -- 79
2017-11-20 10:00:00 5.6 0 Calma 2 Sudeste 0 -- -- 96
2017-11-20 09:00:00 2.6 0 Calma 0 Calma 0 -- -- 95
2017-11-20 08:00:00 2.1 0 Calma 0 Calma 0 -- -- 96
2017-11-20 07:00:00 1.6 0 Calma 2 Este 0 -- -- 99
2017-11-20 06:00:00 2.1 0 Calma 2 Este 0 -- -- 100
2017-11-20 05:00:00 1.5 0 Calma 2 Este 0 -- -- 100
2017-11-20 04:00:00 1.6 0 Calma 0 Calma 0 -- -- 100
2017-11-20 03:00:00 1.7 0 Calma 2 Este 0 -- -- 100
2017-11-20 02:00:00 1.4 0 Calma 0 Calma 0 -- -- 100
2017-11-20 01:00:00 1.8 0 Calma 2 Este 0 -- -- 100
2017-11-20 00:00:00 2 0 Calma 2 Este 0 -- -- 100
2017-11-19 23:00:00 2.4 0 Calma 2 Este 0 -- -- 99
2017-11-19 22:00:00 2.9 0 Calma 2 Sudeste 0 -- -- 99
2017-11-19 21:00:00 3.5 0 Calma 2 Este 0 -- -- 97
2017-11-19 20:00:00 4.4 0 Calma 2 Este 0 -- -- 94
2017-11-19 19:00:00 5.7 0 Calma 2 Este 0 -- -- 89
2017-11-19 18:00:00 7.3 0 Calma 3 Sudeste 0 -- -- 82
2017-11-19 17:00:00 10.7 0 Calma 8 Sudeste 0 -- -- 68
2017-11-19 16:00:00 13.1 4 Sur 8 Norte 0 -- -- 60
2017-11-19 15:00:00 13.4 2 Norte 9 Norte 0 -- -- 56
2017-11-19 14:00:00 12.5 4 Sur 13 Sudoeste 0 -- -- 63
2017-11-19 13:00:00 11.5 5 Sur 12 Sudoeste 0 -- -- 68
2017-11-19 12:00:00 -- 4 Sudoeste 8 Sudoeste 0 -- -- --
2017-11-19 11:00:00 5.9 0 Calma 3 Nordeste 0 -- -- 100
2017-11-19 10:00:00 2.6 0 Calma 2 Norte 0 -- -- 100
2017-11-19 09:00:00 0.7 0 Calma 2 Norte 0 -- -- 100
2017-11-19 08:00:00 0.7 0 Calma 0 Calma 0 -- -- 100
2017-11-19 07:00:00 0.6 0 Calma 0 Calma 0 -- -- 100
2017-11-19 06:00:00 0.8 0 Calma 0 Calma 0 -- -- 100
2017-11-19 05:00:00 0.8 0 Calma 2 Norte 0 -- -- 100
2017-11-19 04:00:00 1.3 0 Calma 2 Nordeste 0 -- -- 100
2017-11-19 03:00:00 1.5 0 Calma 0 Calma 0 -- -- 100
2017-11-19 02:00:00 1.8 0 Calma 0 Calma 0 -- -- 100
2017-11-19 01:00:00 3.1 0 Calma 2 Nordeste 0 -- -- 100
2017-11-19 00:00:00 3.7 0 Calma 3 Nordeste 0 -- -- 100
2017-11-18 23:00:00 4.5 0 Calma 2 Nordeste 0 -- -- 99
2017-11-18 22:00:00 5.8 0 Calma 2 Norte 0 -- -- 98
2017-11-18 21:00:00 6.3 0 Calma 2 Nordeste 0 -- -- 98
2017-11-18 20:00:00 6.6 0 Calma 5 Nordeste 0 -- -- 96
2017-11-18 19:00:00 7.5 0 Calma 10 Noroeste 0 -- -- 91
2017-11-18 18:00:00 8.7 2 Noroeste 9 Noroeste 0 -- -- 89
2017-11-18 17:00:00 9.5 3 Noroeste 10 Oeste 0 -- -- 84
2017-11-18 16:00:00 10.6 4 Noroeste 17 Oeste 0 -- -- 81
2017-11-18 15:00:00 12.2 3 Este 14 Noroeste 0 -- -- 77
2017-11-18 14:00:00 11.6 3 Oeste 18 Noroeste 0 -- -- 78
2017-11-18 13:00:00 10.9 4 Nordeste 17 Este 0 -- -- 79
2017-11-18 12:00:00 10.4 2 Nordeste 9 Nordeste 0 -- -- 91
2017-11-18 11:00:00 9.2 0 Calma 6 Norte 0 -- -- 100
2017-11-18 10:00:00 7.4 0 Calma 3 Noroeste 0 -- -- 100
2017-11-18 09:00:00 6.5 0 Calma 3 Oeste 0 -- -- 100
2017-11-18 08:00:00 5.7 0 Calma 3 Noroeste 0 -- -- 100
2017-11-18 07:00:00 5.2 0 Calma 2 Noroeste 0 -- -- 100
2017-11-18 06:00:00 5 0 Calma 2 Noroeste 0 -- -- 100
2017-11-18 05:00:00 4.7 0 Calma 0 Calma 0 -- -- 100
2017-11-18 04:00:00 5 0 Calma 0 Calma 0 -- -- 100
2017-11-18 03:00:00 5.5 0 Calma 2 Noroeste 0 -- -- 100
2017-11-18 02:00:00 5.5 0 Calma 2 Noroeste 0 -- -- 100
2017-11-18 01:00:00 5.8 0 Calma 2 Oeste 0 -- -- 100
2017-11-18 00:00:00 6.1 0 Calma 2 Noroeste 0 -- -- 100
2017-11-17 23:00:00 6.6 0 Calma 3 Oeste 0 -- -- 99
2017-11-17 22:00:00 7.1 0 Calma 2 Noroeste 0 -- -- 98
2017-11-17 21:00:00 7.9 0 Calma 2 Oeste 0 -- -- 97
2017-11-17 20:00:00 8.4 0 Calma 4 Noroeste 0 -- -- 94
2017-11-17 19:00:00 8.9 0 Calma 4 Noroeste 0 -- -- 92
2017-11-17 18:00:00 9.6 0 Calma 5 Noroeste 0 -- -- 87
2017-11-17 17:00:00 11.1 2 Oeste 15 Oeste 0 -- -- 80
2017-11-17 16:00:00 12.6 4 Noroeste 14 Noroeste 0 -- -- 75
2017-11-17 15:00:00 14 4 Norte 13 Nordeste 0 -- -- 67
2017-11-17 14:00:00 14.3 3 Noroeste 13 Oeste 0 -- -- 63
2017-11-17 13:00:00 14.1 3 Sudoeste 12 Este 0 -- -- 64
2017-11-17 12:00:00 12.6 4 Sudeste 10 Este 0 -- -- 75
2017-11-17 11:00:00 8.8 2 Este 4 Este 0 -- -- 86
2017-11-17 10:00:00 5.2 0 Calma 2 Nordeste 0 -- -- 100
2017-11-17 09:00:00 3.8 0 Calma 2 Este 0 -- -- 99
2017-11-17 08:00:00 3.2 0 Calma 3 Nordeste 0 -- -- 98
2017-11-17 07:00:00 2.8 0 Calma -- -- 0 -- -- 98
2017-11-17 06:00:00 3.1 0 Calma -- -- 0 -- -- 98
2017-11-17 05:00:00 3.2 0 Calma 0 Calma 0 -- -- 98
2017-11-17 04:00:00 3.5 0 Calma 0 Calma 0 -- -- 98
2017-11-17 03:00:00 3.2 0 Calma 0 Calma 0 -- -- 96
2017-11-17 02:00:00 3 0 Calma 2 Nordeste 0 -- -- 93
2017-11-17 01:00:00 3.4 0 Calma 2 Este 0 -- -- 90
2017-11-17 00:00:00 3.8 0 Calma -- -- 0 -- -- 86
2017-11-16 23:00:00 4 0 Calma 0 Calma 0 -- -- 86
2017-11-16 22:00:00 4.6 0 Calma 0 Calma 0 -- -- 85
2017-11-16 21:00:00 5.3 0 Calma 0 Calma 0 -- -- 85
2017-11-16 20:00:00 6.3 0 Calma 0 Calma 0 -- -- 81
2017-11-16 19:00:00 7.5 0 Calma 0 Calma 0 -- -- 77
2017-11-16 18:00:00 9.4 0 Calma 2 Nordeste 0 -- -- 67
2017-11-16 17:00:00 13.1 0 Calma 6 Este 0 -- -- 57
2017-11-16 16:00:00 16.3 2 Sudoeste 8 Sudoeste 0 -- -- 48
2017-11-16 15:00:00 16.4 3 Norte 8 Nordeste 0 -- -- 47
2017-11-16 14:00:00 15.8 3 Este 10 Nordeste 0 -- -- 45
2017-11-16 13:00:00 15.5 5 Sudoeste 11 Sudoeste 0 -- -- 54
2017-11-16 12:00:00 13.6 0 Calma 4 Noroeste 0 -- -- 60
2017-11-16 11:00:00 10.1 0 Calma 3 Noroeste 0 -- -- 82
2017-11-16 10:00:00 5.7 0 Calma 0 Calma 0 -- -- 90
2017-11-16 09:00:00 3.5 0 Calma 0 Calma 0 -- -- 89
2017-11-16 08:00:00 3.4 0 Calma 2 Noroeste 0 -- -- 87
2017-11-16 07:00:00 3.3 0 Calma 2 Norte 0 -- -- 87
2017-11-16 06:00:00 2.5 0 Calma 2 Noroeste 0 -- -- 89
2017-11-16 05:00:00 2.8 0 Calma 2 Noroeste 0 -- -- 88
2017-11-16 04:00:00 2.2 0 Calma 0 Calma 0 -- -- 91
2017-11-16 03:00:00 2.3 0 Calma 0 Calma 0 -- -- 92
2017-11-16 02:00:00 1.8 0 Calma 0 Calma 0 -- -- 97
2017-11-16 01:00:00 1.5 0 Calma 0 Calma 0 -- -- 99
2017-11-16 00:00:00 1.6 0 Calma 0 Calma 0 -- -- 99
2017-11-15 23:00:00 1.9 0 Calma 0 Calma 0 -- -- 99
2017-11-15 22:00:00 2.4 0 Calma 2 Norte 0 -- -- 98
2017-11-15 21:00:00 3.2 0 Calma 2 Norte 0 -- -- 96
2017-11-15 20:00:00 4.2 0 Calma 3 Norte 0 -- -- 93
2017-11-15 19:00:00 5 0 Calma 2 Noroeste 0 -- -- 90
2017-11-15 18:00:00 6.7 0 Calma 2 Noroeste 0 -- -- 84
2017-11-15 17:00:00 10.1 0 Calma 6 Noroeste 0 -- -- 72
2017-11-15 16:00:00 12.5 0 Calma 6 Nordeste 0 -- -- 61
2017-11-15 15:00:00 11.3 4 Nordeste 8 Nordeste 0 -- -- 61
2017-11-15 14:00:00 10 2 Nordeste 12 Nordeste 0 -- -- 64
2017-11-15 13:00:00 9.5 4 Este 8 Este 0 -- -- 63
2017-11-15 12:00:00 7.9 4 Este 9 Este 0 -- -- 73
2017-11-15 11:00:00 4.1 0 Calma 2 Oeste 0 -- -- 96
2017-11-15 10:00:00 1.8 0 Calma 0 Calma 0 -- -- 100
2017-11-15 09:00:00 -0.8 0 Calma 2 Noroeste 0 -- -- 100
2017-11-15 08:00:00 -1.3 0 Calma 2 Noroeste 0 -- -- 100
2017-11-15 07:00:00 -1 0 Calma 3 Noroeste 0 -- -- 100
2017-11-15 06:00:00 -1 0 Calma 2 Noroeste 0 -- -- 100
2017-11-15 05:00:00 -0.4 0 Calma 2 Noroeste 0 -- -- 100
2017-11-15 04:00:00 -0.1 0 Calma 2 Noroeste 0 -- -- 100
2017-11-15 03:00:00 0.5 0 Calma 6 Noroeste 0 -- -- 100
2017-11-15 02:00:00 0.2 0 Calma 2 Oeste 0 -- -- 100
2017-11-15 01:00:00 0.6 0 Calma 2 Noroeste 0 -- -- 99
2017-11-15 00:00:00 1.4 0 Calma 4 Oeste 0 -- -- 99